sensor_id;sensor_type;location;lat;lon;timestamp;P1;durP1;ratioP1;P2;durP2;ratioP2
70308;SDS011;57716;50.896;4.440;2023-02-28T00:00:26;13.15;;;6.07;;
70308;SDS011;57716;50.896;4.440;2023-02-28T00:02:52;13.40;;;6.60;;
70308;SDS011;57716;50.896;4.440;2023-02-28T00:05:19;14.33;;;7.17;;
70308;SDS011;57716;50.896;4.440;2023-02-28T00:07:46;14.55;;;7.03;;
70308;SDS011;57716;50.896;4.440;2023-02-28T00:10:13;12.57;;;7.00;;
70308;SDS011;57716;50.896;4.440;2023-02-28T00:12:44;10.47;;;6.37;;
70308;SDS011;57716;50.896;4.440;2023-02-28T00:15:10;11.33;;;6.00;;
70308;SDS011;57716;50.896;4.440;2023-02-28T00:17:36;13.77;;;6.47;;
70308;SDS011;57716;50.896;4.440;2023-02-28T00:20:03;17.57;;;7.10;;
70308;SDS011;57716;50.896;4.440;2023-02-28T00:22:31;13.03;;;6.63;;
70308;SDS011;57716;50.896;4.440;2023-02-28T00:24:57;12.93;;;6.77;;
70308;SDS011;57716;50.896;4.440;2023-02-28T00:27:23;13.60;;;6.60;;
70308;SDS011;57716;50.896;4.440;2023-02-28T00:29:48;12.30;;;6.73;;
70308;SDS011;57716;50.896;4.440;2023-02-28T00:32:14;17.33;;;7.40;;
70308;SDS011;57716;50.896;4.440;2023-02-28T00:34:40;14.10;;;7.13;;
70308;SDS011;57716;50.896;4.440;2023-02-28T00:37:06;13.47;;;6.73;;
70308;SDS011;57716;50.896;4.440;2023-02-28T00:39:34;13.37;;;6.97;;
70308;SDS011;57716;50.896;4.440;2023-02-28T00:42:01;10.18;;;5.78;;
70308;SDS011;57716;50.896;4.440;2023-02-28T00:44:28;11.77;;;7.27;;
70308;SDS011;57716;50.896;4.440;2023-02-28T00:46:54;16.67;;;6.97;;
70308;SDS011;57716;50.896;4.440;2023-02-28T00:49:21;13.13;;;7.03;;
70308;SDS011;57716;50.896;4.440;2023-02-28T00:51:47;14.43;;;6.70;;
70308;SDS011;57716;50.896;4.440;2023-02-28T00:54:14;11.90;;;7.00;;
70308;SDS011;57716;50.896;4.440;2023-02-28T00:56:40;20.03;;;7.20;;
70308;SDS011;57716;50.896;4.440;2023-02-28T00:59:05;14.67;;;6.73;;
70308;SDS011;57716;50.896;4.440;2023-02-28T01:01:31;13.97;;;6.70;;
70308;SDS011;57716;50.896;4.440;2023-02-28T01:03:57;12.60;;;6.73;;
70308;SDS011;57716;50.896;4.440;2023-02-28T01:06:23;13.53;;;6.83;;
70308;SDS011;57716;50.896;4.440;2023-02-28T01:08:49;14.27;;;7.47;;
70308;SDS011;57716;50.896;4.440;2023-02-28T01:11:15;13.73;;;6.83;;
70308;SDS011;57716;50.896;4.440;2023-02-28T01:13:43;8.10;;;5.13;;
70308;SDS011;57716;50.896;4.440;2023-02-28T01:16:09;14.52;;;7.55;;
70308;SDS011;57716;50.896;4.440;2023-02-28T01:18:36;12.77;;;6.73;;
70308;SDS011;57716;50.896;4.440;2023-02-28T01:21:03;11.13;;;6.80;;
70308;SDS011;57716;50.896;4.440;2023-02-28T01:23:30;14.38;;;7.07;;
70308;SDS011;57716;50.896;4.440;2023-02-28T01:25:57;13.67;;;7.37;;
70308;SDS011;57716;50.896;4.440;2023-02-28T01:28:22;14.83;;;7.57;;
70308;SDS011;57716;50.896;4.440;2023-02-28T01:30:48;14.17;;;7.23;;
70308;SDS011;57716;50.896;4.440;2023-02-28T01:33:15;14.07;;;8.10;;
70308;SDS011;57716;50.896;4.440;2023-02-28T01:35:41;13.23;;;7.40;;
70308;SDS011;57716;50.896;4.440;2023-02-28T01:38:06;14.83;;;8.50;;
70308;SDS011;57716;50.896;4.440;2023-02-28T01:40:32;17.83;;;8.57;;
70308;SDS011;57716;50.896;4.440;2023-02-28T01:42:58;14.57;;;7.90;;
70308;SDS011;57716;50.896;4.440;2023-02-28T01:45:30;18.23;;;8.87;;
70308;SDS011;57716;50.896;4.440;2023-02-28T01:48:05;18.97;;;8.60;;
70308;SDS011;57716;50.896;4.440;2023-02-28T01:50:37;15.38;;;8.90;;
70308;SDS011;57716;50.896;4.440;2023-02-28T01:53:07;14.23;;;8.53;;
70308;SDS011;57716;50.896;4.440;2023-02-28T01:55:38;13.03;;;8.27;;
70308;SDS011;57716;50.896;4.440;2023-02-28T01:58:06;17.20;;;8.38;;
70308;SDS011;57716;50.896;4.440;2023-02-28T02:03:04;16.83;;;8.00;;
70308;SDS011;57716;50.896;4.440;2023-02-28T02:05:32;17.67;;;8.67;;
70308;SDS011;57716;50.896;4.440;2023-02-28T02:08:03;13.67;;;7.97;;
70308;SDS011;57716;50.896;4.440;2023-02-28T02:10:39;15.53;;;8.37;;
70308;SDS011;57716;50.896;4.440;2023-02-28T02:15:40;14.93;;;8.40;;
70308;SDS011;57716;50.896;4.440;2023-02-28T02:18:23;16.37;;;9.27;;
70308;SDS011;57716;50.896;4.440;2023-02-28T02:26:46;17.70;;;9.83;;
70308;SDS011;57716;50.896;4.440;2023-02-28T02:29:35;19.63;;;8.70;;
70308;SDS011;57716;50.896;4.440;2023-02-28T02:32:09;15.90;;;8.60;;
70308;SDS011;57716;50.896;4.440;2023-02-28T02:34:55;14.85;;;8.07;;
70308;SDS011;57716;50.896;4.440;2023-02-28T02:37:38;17.73;;;9.17;;
70308;SDS011;57716;50.896;4.440;2023-02-28T02:40:18;14.50;;;8.57;;
70308;SDS011;57716;50.896;4.440;2023-02-28T02:42:49;14.77;;;9.00;;
70308;SDS011;57716;50.896;4.440;2023-02-28T02:45:37;13.70;;;8.80;;
70308;SDS011;57716;50.896;4.440;2023-02-28T02:48:11;17.10;;;8.47;;
70308;SDS011;57716;50.896;4.440;2023-02-28T02:50:49;15.73;;;8.40;;
70308;SDS011;57716;50.896;4.440;2023-02-28T02:53:22;15.33;;;8.47;;
70308;SDS011;57716;50.896;4.440;2023-02-28T02:55:54;16.70;;;7.97;;
70308;SDS011;57716;50.896;4.440;2023-02-28T02:58:25;15.43;;;8.50;;
70308;SDS011;57716;50.896;4.440;2023-02-28T03:00:57;17.00;;;9.03;;
70308;SDS011;57716;50.896;4.440;2023-02-28T03:03:26;18.53;;;9.40;;
70308;SDS011;57716;50.896;4.440;2023-02-28T03:05:58;16.60;;;9.33;;
70308;SDS011;57716;50.896;4.440;2023-02-28T03:08:25;13.67;;;8.63;;
70308;SDS011;57716;50.896;4.440;2023-02-28T03:10:55;12.07;;;7.23;;
70308;SDS011;57716;50.896;4.440;2023-02-28T03:16:22;20.70;;;9.87;;
70308;SDS011;57716;50.896;4.440;2023-02-28T03:24:56;22.50;;;9.20;;
70308;SDS011;57716;50.896;4.440;2023-02-28T03:30:06;13.48;;;8.30;;
70308;SDS011;57716;50.896;4.440;2023-02-28T03:32:47;20.20;;;9.67;;
70308;SDS011;57716;50.896;4.440;2023-02-28T03:35:21;17.60;;;9.07;;
70308;SDS011;57716;50.896;4.440;2023-02-28T03:37:50;16.73;;;9.80;;
70308;SDS011;57716;50.896;4.440;2023-02-28T03:40:21;16.57;;;8.97;;
70308;SDS011;57716;50.896;4.440;2023-02-28T03:42:51;17.63;;;9.63;;
70308;SDS011;57716;50.896;4.440;2023-02-28T03:45:24;14.83;;;9.07;;
70308;SDS011;57716;50.896;4.440;2023-02-28T03:48:01;14.60;;;8.77;;
70308;SDS011;57716;50.896;4.440;2023-02-28T03:50:49;17.10;;;9.53;;
70308;SDS011;57716;50.896;4.440;2023-02-28T03:53:30;16.97;;;10.30;;
70308;SDS011;57716;50.896;4.440;2023-02-28T03:58:51;17.87;;;9.47;;
70308;SDS011;57716;50.896;4.440;2023-02-28T04:01:34;18.40;;;10.03;;
70308;SDS011;57716;50.896;4.440;2023-02-28T04:04:01;16.52;;;9.48;;
70308;SDS011;57716;50.896;4.440;2023-02-28T04:06:27;23.20;;;10.30;;
70308;SDS011;57716;50.896;4.440;2023-02-28T04:08:57;22.27;;;10.73;;
70308;SDS011;57716;50.896;4.440;2023-02-28T04:11:24;18.70;;;10.07;;
70308;SDS011;57716;50.896;4.440;2023-02-28T04:13:55;16.33;;;8.77;;
70308;SDS011;57716;50.896;4.440;2023-02-28T04:16:21;15.00;;;9.80;;
70308;SDS011;57716;50.896;4.440;2023-02-28T04:18:47;17.73;;;9.30;;
70308;SDS011;57716;50.896;4.440;2023-02-28T04:21:12;19.40;;;9.47;;
70308;SDS011;57716;50.896;4.440;2023-02-28T04:23:38;15.57;;;9.50;;
70308;SDS011;57716;50.896;4.440;2023-02-28T04:26:04;14.70;;;7.70;;
70308;SDS011;57716;50.896;4.440;2023-02-28T04:28:31;17.10;;;8.97;;
70308;SDS011;57716;50.896;4.440;2023-02-28T04:30:58;16.60;;;10.07;;
70308;SDS011;57716;50.896;4.440;2023-02-28T04:33:25;19.10;;;10.55;;
70308;SDS011;57716;50.896;4.440;2023-02-28T04:36:04;13.97;;;9.00;;
70308;SDS011;57716;50.896;4.440;2023-02-28T04:38:33;19.97;;;10.37;;
70308;SDS011;57716;50.896;4.440;2023-02-28T04:41:02;18.43;;;9.70;;
70308;SDS011;57716;50.896;4.440;2023-02-28T04:43:29;18.40;;;9.50;;
70308;SDS011;57716;50.896;4.440;2023-02-28T04:45:55;15.67;;;9.63;;
70308;SDS011;57716;50.896;4.440;2023-02-28T04:48:23;20.08;;;10.77;;
70308;SDS011;57716;50.896;4.440;2023-02-28T04:50:49;18.20;;;10.90;;
70308;SDS011;57716;50.896;4.440;2023-02-28T04:53:16;19.43;;;11.30;;
70308;SDS011;57716;50.896;4.440;2023-02-28T04:55:42;19.57;;;11.30;;
70308;SDS011;57716;50.896;4.440;2023-02-28T04:58:07;20.80;;;11.80;;
70308;SDS011;57716;50.896;4.440;2023-02-28T05:00:33;19.73;;;10.80;;
70308;SDS011;57716;50.896;4.440;2023-02-28T05:02:59;19.37;;;10.33;;
70308;SDS011;57716;50.896;4.440;2023-02-28T05:05:25;19.47;;;11.43;;
70308;SDS011;57716;50.896;4.440;2023-02-28T05:07:51;17.07;;;10.43;;
70308;SDS011;57716;50.896;4.440;2023-02-28T05:10:18;19.35;;;10.70;;
70308;SDS011;57716;50.896;4.440;2023-02-28T05:12:44;22.33;;;10.27;;
70308;SDS011;57716;50.896;4.440;2023-02-28T05:15:12;19.07;;;10.27;;
70308;SDS011;57716;50.896;4.440;2023-02-28T05:17:39;20.87;;;9.60;;
70308;SDS011;57716;50.896;4.440;2023-02-28T05:20:05;18.20;;;9.10;;
70308;SDS011;57716;50.896;4.440;2023-02-28T05:22:33;17.13;;;9.57;;
70308;SDS011;57716;50.896;4.440;2023-02-28T05:24:59;15.43;;;9.23;;
70308;SDS011;57716;50.896;4.440;2023-02-28T05:27:25;18.87;;;10.47;;
70308;SDS011;57716;50.896;4.440;2023-02-28T05:29:50;19.03;;;10.33;;
70308;SDS011;57716;50.896;4.440;2023-02-28T05:32:16;17.93;;;9.90;;
70308;SDS011;57716;50.896;4.440;2023-02-28T05:34:42;15.93;;;9.00;;
70308;SDS011;57716;50.896;4.440;2023-02-28T05:37:11;14.60;;;9.43;;
70308;SDS011;57716;50.896;4.440;2023-02-28T05:39:38;16.80;;;9.40;;
70308;SDS011;57716;50.896;4.440;2023-02-28T05:42:04;17.03;;;9.27;;
70308;SDS011;57716;50.896;4.440;2023-02-28T05:44:30;16.73;;;10.07;;
70308;SDS011;57716;50.896;4.440;2023-02-28T05:46:55;19.40;;;8.67;;
70308;SDS011;57716;50.896;4.440;2023-02-28T05:49:21;15.27;;;8.57;;
70308;SDS011;57716;50.896;4.440;2023-02-28T05:51:48;14.60;;;8.73;;
70308;SDS011;57716;50.896;4.440;2023-02-28T05:54:13;17.13;;;9.37;;
70308;SDS011;57716;50.896;4.440;2023-02-28T05:56:40;13.07;;;8.57;;
70308;SDS011;57716;50.896;4.440;2023-02-28T05:59:09;20.30;;;9.30;;
70308;SDS011;57716;50.896;4.440;2023-02-28T06:01:39;15.93;;;8.97;;
70308;SDS011;57716;50.896;4.440;2023-02-28T06:04:18;15.63;;;9.20;;
70308;SDS011;57716;50.896;4.440;2023-02-28T06:06:46;16.60;;;9.73;;
70308;SDS011;57716;50.896;4.440;2023-02-28T06:09:12;15.33;;;9.30;;
70308;SDS011;57716;50.896;4.440;2023-02-28T06:11:38;17.03;;;8.93;;
70308;SDS011;57716;50.896;4.440;2023-02-28T06:14:04;17.70;;;9.30;;
70308;SDS011;57716;50.896;4.440;2023-02-28T06:16:31;19.47;;;10.10;;
70308;SDS011;57716;50.896;4.440;2023-02-28T06:19:01;16.48;;;9.60;;
70308;SDS011;57716;50.896;4.440;2023-02-28T06:21:28;20.77;;;9.43;;
70308;SDS011;57716;50.896;4.440;2023-02-28T06:23:55;16.50;;;9.57;;
70308;SDS011;57716;50.896;4.440;2023-02-28T06:26:22;16.73;;;9.32;;
70308;SDS011;57716;50.896;4.440;2023-02-28T06:28:48;14.83;;;9.10;;
70308;SDS011;57716;50.896;4.440;2023-02-28T06:31:16;17.03;;;8.97;;
70308;SDS011;57716;50.896;4.440;2023-02-28T06:33:43;15.67;;;8.63;;
70308;SDS011;57716;50.896;4.440;2023-02-28T06:36:11;17.38;;;9.40;;
70308;SDS011;57716;50.896;4.440;2023-02-28T06:38:38;15.00;;;9.15;;
70308;SDS011;57716;50.896;4.440;2023-02-28T06:41:06;18.27;;;9.18;;
70308;SDS011;57716;50.896;4.440;2023-02-28T06:43:34;14.67;;;8.23;;
70308;SDS011;57716;50.896;4.440;2023-02-28T06:46:03;15.37;;;8.90;;
70308;SDS011;57716;50.896;4.440;2023-02-28T06:48:30;17.63;;;9.43;;
70308;SDS011;57716;50.896;4.440;2023-02-28T06:51:09;16.40;;;9.73;;
70308;SDS011;57716;50.896;4.440;2023-02-28T06:53:38;15.80;;;8.77;;
70308;SDS011;57716;50.896;4.440;2023-02-28T06:56:07;20.20;;;9.67;;
70308;SDS011;57716;50.896;4.440;2023-02-28T06:58:38;19.23;;;9.50;;
70308;SDS011;57716;50.896;4.440;2023-02-28T07:01:07;18.13;;;8.97;;
70308;SDS011;57716;50.896;4.440;2023-02-28T07:03:34;17.23;;;9.33;;
70308;SDS011;57716;50.896;4.440;2023-02-28T07:06:01;16.90;;;8.82;;
70308;SDS011;57716;50.896;4.440;2023-02-28T07:08:27;15.77;;;8.93;;
70308;SDS011;57716;50.896;4.440;2023-02-28T07:10:56;16.33;;;9.53;;
70308;SDS011;57716;50.896;4.440;2023-02-28T07:13:23;16.93;;;9.67;;
70308;SDS011;57716;50.896;4.440;2023-02-28T07:15:53;15.83;;;9.20;;
70308;SDS011;57716;50.896;4.440;2023-02-28T07:18:19;17.73;;;9.07;;
70308;SDS011;57716;50.896;4.440;2023-02-28T07:20:45;19.60;;;9.53;;
70308;SDS011;57716;50.896;4.440;2023-02-28T07:23:11;16.80;;;9.07;;
70308;SDS011;57716;50.896;4.440;2023-02-28T07:25:36;15.13;;;9.13;;
70308;SDS011;57716;50.896;4.440;2023-02-28T07:28:02;14.47;;;8.43;;
70308;SDS011;57716;50.896;4.440;2023-02-28T07:30:28;16.63;;;8.83;;
70308;SDS011;57716;50.896;4.440;2023-02-28T07:32:54;15.27;;;9.20;;
70308;SDS011;57716;50.896;4.440;2023-02-28T07:35:21;14.90;;;9.23;;
70308;SDS011;57716;50.896;4.440;2023-02-28T07:37:47;13.00;;;7.93;;
70308;SDS011;57716;50.896;4.440;2023-02-28T07:40:13;16.60;;;8.50;;
70308;SDS011;57716;50.896;4.440;2023-02-28T07:42:39;15.37;;;8.13;;
70308;SDS011;57716;50.896;4.440;2023-02-28T07:45:06;14.77;;;7.87;;
70308;SDS011;57716;50.896;4.440;2023-02-28T07:47:33;18.27;;;7.83;;
70308;SDS011;57716;50.896;4.440;2023-02-28T07:49:59;13.07;;;7.60;;
70308;SDS011;57716;50.896;4.440;2023-02-28T07:52:25;17.30;;;7.07;;
70308;SDS011;57716;50.896;4.440;2023-02-28T07:54:50;11.87;;;7.13;;
70308;SDS011;57716;50.896;4.440;2023-02-28T07:57:16;16.87;;;7.43;;
70308;SDS011;57716;50.896;4.440;2023-02-28T07:59:43;12.73;;;6.83;;
70308;SDS011;57716;50.896;4.440;2023-02-28T08:02:15;15.73;;;7.00;;
70308;SDS011;57716;50.896;4.440;2023-02-28T08:04:42;15.07;;;6.20;;
70308;SDS011;57716;50.896;4.440;2023-02-28T08:07:08;11.23;;;5.73;;
70308;SDS011;57716;50.896;4.440;2023-02-28T08:09:38;11.97;;;6.53;;
70308;SDS011;57716;50.896;4.440;2023-02-28T08:12:04;10.30;;;5.70;;
70308;SDS011;57716;50.896;4.440;2023-02-28T08:14:30;8.90;;;5.17;;
70308;SDS011;57716;50.896;4.440;2023-02-28T08:16:56;10.40;;;5.93;;
70308;SDS011;57716;50.896;4.440;2023-02-28T08:19:22;11.30;;;5.60;;
70308;SDS011;57716;50.896;4.440;2023-02-28T08:21:47;12.90;;;5.57;;
70308;SDS011;57716;50.896;4.440;2023-02-28T08:24:13;11.07;;;5.13;;
70308;SDS011;57716;50.896;4.440;2023-02-28T08:26:39;9.13;;;4.87;;
70308;SDS011;57716;50.896;4.440;2023-02-28T08:29:05;8.47;;;4.73;;
70308;SDS011;57716;50.896;4.440;2023-02-28T08:31:30;8.70;;;5.33;;
70308;SDS011;57716;50.896;4.440;2023-02-28T08:33:56;9.23;;;4.77;;
70308;SDS011;57716;50.896;4.440;2023-02-28T08:36:24;11.90;;;4.90;;
70308;SDS011;57716;50.896;4.440;2023-02-28T08:38:50;10.87;;;5.20;;
70308;SDS011;57716;50.896;4.440;2023-02-28T08:41:16;10.23;;;4.63;;
70308;SDS011;57716;50.896;4.440;2023-02-28T08:43:42;9.03;;;4.40;;
70308;SDS011;57716;50.896;4.440;2023-02-28T08:46:10;9.23;;;4.13;;
70308;SDS011;57716;50.896;4.440;2023-02-28T08:48:38;8.30;;;4.60;;
70308;SDS011;57716;50.896;4.440;2023-02-28T08:51:05;8.83;;;4.00;;
70308;SDS011;57716;50.896;4.440;2023-02-28T08:53:36;7.33;;;4.30;;
70308;SDS011;57716;50.896;4.440;2023-02-28T08:56:06;9.83;;;4.17;;
70308;SDS011;57716;50.896;4.440;2023-02-28T08:58:37;9.10;;;3.70;;
70308;SDS011;57716;50.896;4.440;2023-02-28T09:01:10;9.43;;;4.00;;
70308;SDS011;57716;50.896;4.440;2023-02-28T09:03:37;10.03;;;3.93;;
70308;SDS011;57716;50.896;4.440;2023-02-28T09:06:03;9.63;;;3.67;;
70308;SDS011;57716;50.896;4.440;2023-02-28T09:08:30;8.37;;;4.00;;
70308;SDS011;57716;50.896;4.440;2023-02-28T09:10:56;7.67;;;3.30;;
70308;SDS011;57716;50.896;4.440;2023-02-28T09:13:23;8.63;;;3.60;;
70308;SDS011;57716;50.896;4.440;2023-02-28T09:15:50;6.87;;;3.60;;
70308;SDS011;57716;50.896;4.440;2023-02-28T09:18:15;8.63;;;3.70;;
70308;SDS011;57716;50.896;4.440;2023-02-28T09:20:42;7.13;;;3.47;;
70308;SDS011;57716;50.896;4.440;2023-02-28T09:23:09;6.93;;;3.77;;
70308;SDS011;57716;50.896;4.440;2023-02-28T09:25:36;8.70;;;3.17;;
70308;SDS011;57716;50.896;4.440;2023-02-28T09:28:02;9.87;;;3.87;;
70308;SDS011;57716;50.896;4.440;2023-02-28T09:30:28;7.43;;;3.33;;
70308;SDS011;57716;50.896;4.440;2023-02-28T09:32:55;7.07;;;3.83;;
70308;SDS011;57716;50.896;4.440;2023-02-28T09:35:21;6.50;;;3.43;;
70308;SDS011;57716;50.896;4.440;2023-02-28T09:37:49;7.83;;;2.83;;
70308;SDS011;57716;50.896;4.440;2023-02-28T09:42:45;5.40;;;3.10;;
70308;SDS011;57716;50.896;4.440;2023-02-28T09:45:19;8.30;;;3.53;;
70308;SDS011;57716;50.896;4.440;2023-02-28T09:47:54;7.53;;;3.60;;
70308;SDS011;57716;50.896;4.440;2023-02-28T09:52:58;5.77;;;3.47;;
70308;SDS011;57716;50.896;4.440;2023-02-28T09:58:11;5.17;;;2.97;;
70308;SDS011;57716;50.896;4.440;2023-02-28T10:00:46;4.70;;;2.70;;
70308;SDS011;57716;50.896;4.440;2023-02-28T10:06:17;7.43;;;2.80;;
70308;SDS011;57716;50.896;4.440;2023-02-28T10:08:50;6.37;;;3.07;;
70308;SDS011;57716;50.896;4.440;2023-02-28T10:11:22;6.60;;;3.17;;
70308;SDS011;57716;50.896;4.440;2023-02-28T10:24:35;6.23;;;2.73;;
70308;SDS011;57716;50.896;4.440;2023-02-28T10:27:19;6.10;;;2.67;;
70308;SDS011;57716;50.896;4.440;2023-02-28T10:29:50;4.10;;;2.30;;
70308;SDS011;57716;50.896;4.440;2023-02-28T10:32:21;5.63;;;2.70;;
70308;SDS011;57716;50.896;4.440;2023-02-28T10:37:44;7.20;;;2.77;;
70308;SDS011;57716;50.896;4.440;2023-02-28T10:45:38;4.93;;;2.70;;
70308;SDS011;57716;50.896;4.440;2023-02-28T11:01:25;5.63;;;2.80;;
70308;SDS011;57716;50.896;4.440;2023-02-28T11:04:16;6.77;;;2.90;;
70308;SDS011;57716;50.896;4.440;2023-02-28T11:06:48;7.23;;;3.20;;
70308;SDS011;57716;50.896;4.440;2023-02-28T11:11:57;6.10;;;3.27;;
70308;SDS011;57716;50.896;4.440;2023-02-28T11:14:30;5.10;;;2.77;;
70308;SDS011;57716;50.896;4.440;2023-02-28T11:19:54;7.17;;;2.60;;
70308;SDS011;57716;50.896;4.440;2023-02-28T11:22:23;7.97;;;2.87;;
70308;SDS011;57716;50.896;4.440;2023-02-28T11:24:54;5.03;;;2.73;;
70308;SDS011;57716;50.896;4.440;2023-02-28T11:29:59;6.50;;;2.80;;
70308;SDS011;57716;50.896;4.440;2023-02-28T11:32:26;7.17;;;2.40;;
70308;SDS011;57716;50.896;4.440;2023-02-28T11:37:34;5.10;;;2.87;;
70308;SDS011;57716;50.896;4.440;2023-02-28T11:40:01;6.17;;;2.50;;
70308;SDS011;57716;50.896;4.440;2023-02-28T11:42:49;4.20;;;2.20;;
70308;SDS011;57716;50.896;4.440;2023-02-28T11:48:23;5.20;;;2.93;;
70308;SDS011;57716;50.896;4.440;2023-02-28T11:51:01;4.27;;;2.13;;
70308;SDS011;57716;50.896;4.440;2023-02-28T11:53:50;6.43;;;2.50;;
70308;SDS011;57716;50.896;4.440;2023-02-28T12:10:00;6.93;;;2.70;;
70308;SDS011;57716;50.896;4.440;2023-02-28T12:28:53;6.20;;;2.40;;
70308;SDS011;57716;50.896;4.440;2023-02-28T12:31:24;4.97;;;2.50;;
70308;SDS011;57716;50.896;4.440;2023-02-28T12:33:56;5.33;;;2.77;;
70308;SDS011;57716;50.896;4.440;2023-02-28T12:36:27;5.23;;;2.83;;
70308;SDS011;57716;50.896;4.440;2023-02-28T12:38:55;5.07;;;2.77;;
70308;SDS011;57716;50.896;4.440;2023-02-28T12:44:11;5.20;;;2.73;;
70308;SDS011;57716;50.896;4.440;2023-02-28T12:46:42;4.63;;;2.60;;
70308;SDS011;57716;50.896;4.440;2023-02-28T12:49:13;6.73;;;2.80;;
70308;SDS011;57716;50.896;4.440;2023-02-28T12:51:46;6.93;;;3.17;;
70308;SDS011;57716;50.896;4.440;2023-02-28T12:57:02;4.17;;;2.43;;
70308;SDS011;57716;50.896;4.440;2023-02-28T13:02:28;5.87;;;2.70;;
70308;SDS011;57716;50.896;4.440;2023-02-28T13:10:57;5.47;;;2.97;;
70308;SDS011;57716;50.896;4.440;2023-02-28T13:13:24;6.30;;;3.00;;
70308;SDS011;57716;50.896;4.440;2023-02-28T13:15:59;5.20;;;2.97;;
70308;SDS011;57716;50.896;4.440;2023-02-28T13:21:06;5.37;;;2.97;;
70308;SDS011;57716;50.896;4.440;2023-02-28T13:23:37;6.53;;;2.90;;
70308;SDS011;57716;50.896;4.440;2023-02-28T13:26:05;7.03;;;3.20;;
70308;SDS011;57716;50.896;4.440;2023-02-28T13:31:18;6.77;;;3.53;;
70308;SDS011;57716;50.896;4.440;2023-02-28T13:38:44;6.03;;;2.97;;
70308;SDS011;57716;50.896;4.440;2023-02-28T14:03:07;5.17;;;2.73;;
70308;SDS011;57716;50.896;4.440;2023-02-28T14:08:17;6.23;;;3.30;;
70308;SDS011;57716;50.896;4.440;2023-02-28T14:10:47;5.60;;;3.13;;
70308;SDS011;57716;50.896;4.440;2023-02-28T14:16:13;5.40;;;3.03;;
70308;SDS011;57716;50.896;4.440;2023-02-28T14:19:09;5.70;;;2.97;;
70308;SDS011;57716;50.896;4.440;2023-02-28T14:27:24;5.53;;;3.30;;
70308;SDS011;57716;50.896;4.440;2023-02-28T14:30:29;6.10;;;3.40;;
70308;SDS011;57716;50.896;4.440;2023-02-28T14:38:35;7.07;;;3.40;;
70308;SDS011;57716;50.896;4.440;2023-02-28T14:44:12;9.13;;;3.23;;
70308;SDS011;57716;50.896;4.440;2023-02-28T14:46:46;5.07;;;2.77;;
70308;SDS011;57716;50.896;4.440;2023-02-28T14:49:21;10.00;;;3.17;;
70308;SDS011;57716;50.896;4.440;2023-02-28T14:52:01;5.77;;;3.00;;
70308;SDS011;57716;50.896;4.440;2023-02-28T14:54:27;5.53;;;2.80;;
70308;SDS011;57716;50.896;4.440;2023-02-28T14:56:54;5.67;;;2.67;;
70308;SDS011;57716;50.896;4.440;2023-02-28T14:59:27;5.70;;;2.90;;
70308;SDS011;57716;50.896;4.440;2023-02-28T15:04:41;5.53;;;3.17;;
70308;SDS011;57716;50.896;4.440;2023-02-28T15:07:11;5.93;;;3.00;;
70308;SDS011;57716;50.896;4.440;2023-02-28T15:09:39;6.10;;;3.20;;
70308;SDS011;57716;50.896;4.440;2023-02-28T15:12:06;7.43;;;3.43;;
70308;SDS011;57716;50.896;4.440;2023-02-28T15:14:32;7.53;;;3.17;;
70308;SDS011;57716;50.896;4.440;2023-02-28T15:17:06;5.03;;;2.83;;
70308;SDS011;57716;50.896;4.440;2023-02-28T15:19:46;4.87;;;2.87;;
70308;SDS011;57716;50.896;4.440;2023-02-28T15:22:17;6.13;;;3.20;;
70308;SDS011;57716;50.896;4.440;2023-02-28T15:24:53;7.80;;;3.00;;
70308;SDS011;57716;50.896;4.440;2023-02-28T15:27:20;5.87;;;3.10;;
70308;SDS011;57716;50.896;4.440;2023-02-28T15:29:56;5.87;;;3.03;;
70308;SDS011;57716;50.896;4.440;2023-02-28T15:32:46;7.03;;;3.20;;
70308;SDS011;57716;50.896;4.440;2023-02-28T15:35:43;8.38;;;3.30;;
70308;SDS011;57716;50.896;4.440;2023-02-28T15:38:21;6.83;;;3.50;;
70308;SDS011;57716;50.896;4.440;2023-02-28T15:40:53;6.00;;;3.13;;
70308;SDS011;57716;50.896;4.440;2023-02-28T15:43:27;7.60;;;3.50;;
70308;SDS011;57716;50.896;4.440;2023-02-28T15:45:59;5.73;;;3.00;;
70308;SDS011;57716;50.896;4.440;2023-02-28T15:50:56;7.10;;;3.17;;
70308;SDS011;57716;50.896;4.440;2023-02-28T15:53:30;7.03;;;3.23;;
70308;SDS011;57716;50.896;4.440;2023-02-28T15:56:00;6.50;;;3.37;;
70308;SDS011;57716;50.896;4.440;2023-02-28T15:58:28;6.80;;;3.37;;
70308;SDS011;57716;50.896;4.440;2023-02-28T16:01:03;7.30;;;3.73;;
70308;SDS011;57716;50.896;4.440;2023-02-28T16:03:39;6.22;;;3.45;;
70308;SDS011;57716;50.896;4.440;2023-02-28T16:08:58;10.17;;;3.40;;
70308;SDS011;57716;50.896;4.440;2023-02-28T16:11:23;6.87;;;3.17;;
70308;SDS011;57716;50.896;4.440;2023-02-28T16:13:50;8.10;;;3.67;;
70308;SDS011;57716;50.896;4.440;2023-02-28T16:16:18;8.20;;;3.50;;
70308;SDS011;57716;50.896;4.440;2023-02-28T16:18:46;6.10;;;3.50;;
70308;SDS011;57716;50.896;4.440;2023-02-28T16:21:12;6.30;;;3.60;;
70308;SDS011;57716;50.896;4.440;2023-02-28T16:23:38;9.67;;;3.40;;
70308;SDS011;57716;50.896;4.440;2023-02-28T16:26:04;7.63;;;3.03;;
70308;SDS011;57716;50.896;4.440;2023-02-28T16:28:32;8.73;;;3.00;;
70308;SDS011;57716;50.896;4.440;2023-02-28T16:31:00;7.07;;;3.63;;
70308;SDS011;57716;50.896;4.440;2023-02-28T16:33:29;6.70;;;3.70;;
70308;SDS011;57716;50.896;4.440;2023-02-28T16:35:58;6.27;;;3.30;;
70308;SDS011;57716;50.896;4.440;2023-02-28T16:38:25;7.07;;;3.40;;
70308;SDS011;57716;50.896;4.440;2023-02-28T16:40:51;6.03;;;3.27;;
70308;SDS011;57716;50.896;4.440;2023-02-28T16:43:22;8.67;;;3.50;;
70308;SDS011;57716;50.896;4.440;2023-02-28T16:45:54;7.50;;;3.40;;
70308;SDS011;57716;50.896;4.440;2023-02-28T16:48:22;5.90;;;3.47;;
70308;SDS011;57716;50.896;4.440;2023-02-28T16:50:47;6.57;;;3.27;;
70308;SDS011;57716;50.896;4.440;2023-02-28T16:53:13;7.60;;;3.20;;
70308;SDS011;57716;50.896;4.440;2023-02-28T16:55:39;7.30;;;3.67;;
70308;SDS011;57716;50.896;4.440;2023-02-28T16:58:05;9.10;;;3.33;;
70308;SDS011;57716;50.896;4.440;2023-02-28T17:00:31;7.13;;;3.67;;
70308;SDS011;57716;50.896;4.440;2023-02-28T17:02:58;5.87;;;3.20;;
70308;SDS011;57716;50.896;4.440;2023-02-28T17:05:28;6.33;;;2.93;;
70308;SDS011;57716;50.896;4.440;2023-02-28T17:08:02;7.90;;;3.60;;
70308;SDS011;57716;50.896;4.440;2023-02-28T17:10:28;7.33;;;3.30;;
70308;SDS011;57716;50.896;4.440;2023-02-28T17:12:54;6.23;;;3.33;;
70308;SDS011;57716;50.896;4.440;2023-02-28T17:15:19;8.27;;;3.70;;
70308;SDS011;57716;50.896;4.440;2023-02-28T17:17:46;9.17;;;3.60;;
70308;SDS011;57716;50.896;4.440;2023-02-28T17:20:17;6.50;;;3.63;;
70308;SDS011;57716;50.896;4.440;2023-02-28T17:22:47;8.00;;;3.87;;
70308;SDS011;57716;50.896;4.440;2023-02-28T17:25:13;6.63;;;3.63;;
70308;SDS011;57716;50.896;4.440;2023-02-28T17:27:39;7.83;;;3.40;;
70308;SDS011;57716;50.896;4.440;2023-02-28T17:30:24;7.73;;;3.60;;
70308;SDS011;57716;50.896;4.440;2023-02-28T17:32:52;8.63;;;3.10;;
70308;SDS011;57716;50.896;4.440;2023-02-28T17:35:18;8.13;;;3.53;;
70308;SDS011;57716;50.896;4.440;2023-02-28T17:37:44;16.13;;;4.40;;
70308;SDS011;57716;50.896;4.440;2023-02-28T17:40:14;9.00;;;3.67;;
70308;SDS011;57716;50.896;4.440;2023-02-28T17:42:42;7.13;;;3.80;;
70308;SDS011;57716;50.896;4.440;2023-02-28T17:45:09;8.03;;;4.07;;
70308;SDS011;57716;50.896;4.440;2023-02-28T17:47:35;9.60;;;3.90;;
70308;SDS011;57716;50.896;4.440;2023-02-28T17:50:01;8.23;;;3.93;;
70308;SDS011;57716;50.896;4.440;2023-02-28T17:52:27;8.47;;;3.67;;
70308;SDS011;57716;50.896;4.440;2023-02-28T17:54:54;8.17;;;4.23;;
70308;SDS011;57716;50.896;4.440;2023-02-28T17:57:20;6.60;;;3.90;;
70308;SDS011;57716;50.896;4.440;2023-02-28T17:59:46;7.97;;;3.80;;